createdAt,value
2023-02-26T00:00:32.549Z,933.43
2023-02-26T00:01:32.559Z,933.49
2023-02-26T00:02:32.569Z,933.49
2023-02-26T00:03:32.688Z,933.50
2023-02-26T00:04:32.682Z,933.49
2023-02-26T00:05:32.633Z,933.52
2023-02-26T00:06:32.682Z,933.50
2023-02-26T00:07:32.672Z,933.48
2023-02-26T00:08:32.720Z,933.53
2023-02-26T00:09:32.686Z,933.48
2023-02-26T00:10:32.702Z,933.50
2023-02-26T00:11:32.791Z,933.52
2023-02-26T00:12:32.755Z,933.53
2023-02-26T00:13:32.774Z,933.50
2023-02-26T00:14:32.778Z,933.55
2023-02-26T00:15:32.811Z,933.56
2023-02-26T00:16:32.877Z,933.59
2023-02-26T00:17:32.842Z,933.60
2023-02-26T00:18:32.853Z,933.59
2023-02-26T00:19:32.885Z,933.62
2023-02-26T00:20:33.694Z,933.61
2023-02-26T00:21:32.913Z,933.61
2023-02-26T00:22:32.924Z,933.58
2023-02-26T00:23:32.935Z,933.55
2023-02-26T00:24:32.947Z,933.52
2023-02-26T00:25:32.970Z,933.48
2023-02-26T00:26:32.982Z,933.50
2023-02-26T00:27:32.996Z,933.48
2023-02-26T00:28:33.021Z,933.49
2023-02-26T00:29:33.032Z,933.46
2023-02-26T00:30:33.196Z,933.50
2023-02-26T00:31:33.114Z,933.58
2023-02-26T00:32:33.121Z,933.61
2023-02-26T00:33:33.108Z,933.60
2023-02-26T00:34:33.125Z,933.62
2023-02-26T00:35:33.162Z,933.61
2023-02-26T00:36:33.153Z,933.61
2023-02-26T00:37:33.170Z,933.61
2023-02-26T00:38:33.199Z,933.65
2023-02-26T00:39:33.208Z,933.69
2023-02-26T00:40:33.229Z,933.69
2023-02-26T00:41:33.282Z,933.71
2023-02-26T00:42:33.265Z,933.73
2023-02-26T00:43:33.282Z,933.71
2023-02-26T00:44:33.291Z,933.74
2023-02-26T00:45:33.311Z,933.77
2023-02-26T00:46:33.400Z,933.80
2023-02-26T00:47:33.344Z,933.87
2023-02-26T00:48:33.361Z,933.91
2023-02-26T00:49:33.384Z,933.91
2023-02-26T00:50:33.402Z,933.94
2023-02-26T00:51:33.437Z,933.97
2023-02-26T00:52:33.442Z,933.97
2023-02-26T00:53:33.446Z,933.98
2023-02-26T00:54:33.469Z,934.00
2023-02-26T00:55:33.491Z,934.01
2023-02-26T00:56:33.502Z,934.02
2023-02-26T00:57:33.522Z,934.01
2023-02-26T00:58:33.537Z,934.00
2023-02-26T00:59:33.555Z,934.05
2023-02-26T01:00:33.570Z,934.04
2023-02-26T01:01:33.645Z,934.06
2023-02-26T01:02:33.610Z,934.08
2023-02-26T01:03:33.630Z,934.08
2023-02-26T01:04:33.642Z,934.11
2023-02-26T01:05:33.660Z,934.07
2023-02-26T01:06:33.676Z,934.11
2023-02-26T01:07:33.703Z,934.14
2023-02-26T01:08:33.702Z,934.16
2023-02-26T01:09:33.716Z,934.16
2023-02-26T01:10:33.741Z,934.16
2023-02-26T01:11:33.750Z,934.23
2023-02-26T01:12:33.766Z,934.22
2023-02-26T01:13:33.792Z,934.23
2023-02-26T01:14:33.809Z,934.23
2023-02-26T01:15:33.841Z,934.22
2023-02-26T01:16:33.848Z,934.22
2023-02-26T01:17:33.865Z,934.19
2023-02-26T01:18:33.868Z,934.22
2023-02-26T01:19:33.885Z,934.22
2023-02-26T01:20:33.902Z,934.18
2023-02-26T01:21:33.922Z,934.22
2023-02-26T01:22:33.937Z,934.20
2023-02-26T01:23:33.986Z,934.17
2023-02-26T01:24:33.978Z,934.21
2023-02-26T01:25:34.001Z,934.22
2023-02-26T01:26:34.014Z,934.26
2023-02-26T01:27:34.023Z,934.22
2023-02-26T01:28:34.041Z,934.22
2023-02-26T01:29:34.069Z,934.21
2023-02-26T01:30:34.080Z,934.20
2023-02-26T01:31:34.285Z,934.22
2023-02-26T01:32:34.140Z,934.22
2023-02-26T01:33:34.125Z,934.24
2023-02-26T01:34:34.141Z,934.31
2023-02-26T01:35:34.165Z,934.29
2023-02-26T01:36:34.183Z,934.34
2023-02-26T01:37:34.207Z,934.35
2023-02-26T01:38:34.212Z,934.38
2023-02-26T01:39:34.257Z,934.40
2023-02-26T01:40:34.658Z,934.34
2023-02-26T01:41:34.280Z,934.31
2023-02-26T01:42:34.279Z,934.34
2023-02-26T01:43:34.304Z,934.37
2023-02-26T01:44:34.318Z,934.40
2023-02-26T01:45:34.347Z,934.40
2023-02-26T01:46:34.712Z,934.41
2023-02-26T01:47:34.366Z,934.40
2023-02-26T01:48:34.396Z,934.36
2023-02-26T01:49:34.410Z,934.36
2023-02-26T01:50:34.426Z,934.35
2023-02-26T01:51:34.434Z,934.37
2023-02-26T01:52:34.462Z,934.39
2023-02-26T01:53:34.470Z,934.43
2023-02-26T01:54:34.491Z,934.39
2023-02-26T01:55:34.523Z,934.43
2023-02-26T01:56:34.527Z,934.43
2023-02-26T01:57:34.537Z,934.44
2023-02-26T01:58:34.562Z,934.44
2023-02-26T01:59:34.580Z,934.48
2023-02-26T02:00:34.590Z,934.53
2023-02-26T02:01:34.609Z,934.50
2023-02-26T02:02:34.845Z,934.52
2023-02-26T02:03:34.710Z,934.52
2023-02-26T02:04:34.657Z,934.49
2023-02-26T02:05:34.673Z,934.50
2023-02-26T02:06:34.707Z,934.47
2023-02-26T02:07:34.708Z,934.39
2023-02-26T02:08:34.733Z,934.39
2023-02-26T02:09:34.782Z,934.40
2023-02-26T02:10:34.782Z,934.37
2023-02-26T02:11:34.794Z,934.34
2023-02-26T02:12:34.790Z,934.37
2023-02-26T02:13:34.806Z,934.39
2023-02-26T02:14:34.823Z,934.39
2023-02-26T02:15:34.841Z,934.36
2023-02-26T02:16:35.045Z,934.36
2023-02-26T02:17:34.880Z,934.38
2023-02-26T02:18:34.895Z,934.38
2023-02-26T02:19:34.934Z,934.47
2023-02-26T02:20:34.921Z,934.43
2023-02-26T02:21:34.938Z,934.42
2023-02-26T02:22:34.954Z,934.43
2023-02-26T02:23:34.979Z,934.43
2023-02-26T02:24:34.990Z,934.46
2023-02-26T02:25:35.004Z,934.45
2023-02-26T02:26:35.031Z,934.45
2023-02-26T02:27:35.059Z,934.40
2023-02-26T02:28:35.054Z,934.40
2023-02-26T02:29:35.081Z,934.41
2023-02-26T02:30:35.096Z,934.44
2023-02-26T02:31:35.292Z,934.45
2023-02-26T02:32:35.232Z,934.46
2023-02-26T02:33:35.147Z,934.46
2023-02-26T02:34:35.156Z,934.45
2023-02-26T02:35:35.181Z,934.45
2023-02-26T02:36:35.198Z,934.44
2023-02-26T02:37:35.216Z,934.43
2023-02-26T02:38:35.225Z,934.43
2023-02-26T02:39:35.255Z,934.45
2023-02-26T02:40:35.265Z,934.44
2023-02-26T02:41:35.291Z,934.42
2023-02-26T02:42:35.341Z,934.41
2023-02-26T02:43:35.357Z,934.41
2023-02-26T02:44:35.334Z,934.42
2023-02-26T02:45:35.384Z,934.39
2023-02-26T02:46:35.392Z,934.32
2023-02-26T02:47:35.388Z,934.31
2023-02-26T02:48:35.401Z,934.31
2023-02-26T02:49:35.414Z,934.33
2023-02-26T02:50:35.429Z,934.31
2023-02-26T02:51:35.445Z,934.28
2023-02-26T02:52:35.470Z,934.32
2023-02-26T02:53:35.482Z,934.31
2023-02-26T02:54:35.513Z,934.35
2023-02-26T02:55:35.522Z,934.32
2023-02-26T02:56:35.528Z,934.34
2023-02-26T02:57:35.556Z,934.40
2023-02-26T02:58:36.592Z,934.38
2023-02-26T02:59:35.599Z,934.38
2023-02-26T03:00:35.612Z,934.37
2023-02-26T03:01:35.625Z,934.32
2023-02-26T03:02:35.675Z,934.28
2023-02-26T03:03:35.661Z,934.30
2023-02-26T03:04:35.666Z,934.25
2023-02-26T03:05:35.690Z,934.28
2023-02-26T03:06:36.174Z,934.25
2023-02-26T03:07:35.726Z,934.27
2023-02-26T03:08:35.745Z,934.27
2023-02-26T03:09:35.758Z,934.29
2023-02-26T03:10:35.774Z,934.25
2023-02-26T03:11:35.787Z,934.26
2023-02-26T03:12:35.815Z,934.27
2023-02-26T03:13:35.825Z,934.24
2023-02-26T03:14:35.841Z,934.26
2023-02-26T03:15:35.881Z,934.23
2023-02-26T03:16:35.900Z,934.18
2023-02-26T03:17:35.896Z,934.19
2023-02-26T03:18:35.902Z,934.18
2023-02-26T03:19:35.926Z,934.18
2023-02-26T03:20:35.937Z,934.18
2023-02-26T03:21:35.956Z,934.13
2023-02-26T03:22:35.995Z,934.06
2023-02-26T03:23:35.996Z,934.07
2023-02-26T03:24:36.015Z,934.07
2023-02-26T03:25:36.022Z,934.05
2023-02-26T03:26:36.047Z,934.07
2023-02-26T03:27:36.070Z,934.07
2023-02-26T03:28:36.078Z,934.07
2023-02-26T03:29:36.091Z,934.08
2023-02-26T03:30:36.110Z,934.06
2023-02-26T03:31:36.204Z,934.03
2023-02-26T03:32:36.199Z,934.04
2023-02-26T03:33:36.158Z,934.00
2023-02-26T03:34:36.182Z,934.00
2023-02-26T03:35:36.191Z,934.00
2023-02-26T03:36:36.233Z,933.97
2023-02-26T03:37:36.236Z,933.90
2023-02-26T03:38:36.257Z,933.92
2023-02-26T03:39:36.267Z,933.93
2023-02-26T03:40:36.280Z,933.89
2023-02-26T03:41:36.302Z,933.97
2023-02-26T03:42:36.326Z,933.93
2023-02-26T03:43:36.340Z,933.94
2023-02-26T03:44:36.348Z,933.92
2023-02-26T03:45:36.424Z,933.91
2023-02-26T03:46:36.386Z,933.93
2023-02-26T03:47:36.417Z,933.94
2023-02-26T03:48:36.433Z,933.93
2023-02-26T03:49:36.438Z,933.95
2023-02-26T03:50:36.453Z,933.92
2023-02-26T03:51:36.464Z,933.91
2023-02-26T03:52:36.481Z,933.92
2023-02-26T03:53:36.504Z,933.92
2023-02-26T03:54:36.520Z,933.92
2023-02-26T03:55:36.537Z,933.89
2023-02-26T03:56:36.553Z,933.86
2023-02-26T03:57:36.571Z,933.80
2023-02-26T03:58:36.586Z,933.80
2023-02-26T03:59:36.602Z,933.78
2023-02-26T04:00:36.615Z,933.76
2023-02-26T04:01:36.630Z,933.74
2023-02-26T04:02:36.672Z,933.73
2023-02-26T04:03:36.681Z,933.73
2023-02-26T04:04:36.770Z,933.72
2023-02-26T04:05:36.697Z,933.67
2023-02-26T04:06:36.721Z,933.69
2023-02-26T04:07:36.739Z,933.69
2023-02-26T04:08:36.757Z,933.66
2023-02-26T04:09:36.773Z,933.68
2023-02-26T04:10:36.822Z,933.63
2023-02-26T04:11:36.805Z,933.61
2023-02-26T04:12:36.824Z,933.57
2023-02-26T04:13:36.832Z,933.54
2023-02-26T04:14:36.857Z,933.53
2023-02-26T04:15:36.871Z,933.48
2023-02-26T04:16:36.957Z,933.44
2023-02-26T04:17:36.906Z,933.46
2023-02-26T04:18:36.928Z,933.39
2023-02-26T04:19:36.958Z,933.40
2023-02-26T04:20:36.949Z,933.36
2023-02-26T04:21:36.966Z,933.40
2023-02-26T04:22:36.981Z,933.38
2023-02-26T04:23:36.998Z,933.35
2023-02-26T04:24:37.016Z,933.34
2023-02-26T04:25:37.032Z,933.34
2023-02-26T04:26:37.048Z,933.26
2023-02-26T04:27:37.072Z,933.25
2023-02-26T04:28:37.088Z,933.21
2023-02-26T04:29:37.098Z,933.18
2023-02-26T04:30:37.179Z,933.11
2023-02-26T04:31:37.170Z,933.14
2023-02-26T04:32:37.219Z,933.11
2023-02-26T04:33:37.165Z,933.16
2023-02-26T04:34:37.188Z,933.13
2023-02-26T04:35:37.238Z,933.15
2023-02-26T04:36:37.221Z,933.16
2023-02-26T04:37:37.240Z,933.15
2023-02-26T04:38:37.251Z,933.15
2023-02-26T04:39:37.265Z,933.15
2023-02-26T04:40:37.278Z,933.14
2023-02-26T04:41:37.295Z,933.12
2023-02-26T04:42:37.317Z,933.09
2023-02-26T04:43:37.327Z,933.11
2023-02-26T04:44:37.346Z,933.08
2023-02-26T04:45:37.375Z,933.05
2023-02-26T04:46:37.442Z,933.04
2023-02-26T04:47:37.395Z,933.02
2023-02-26T04:48:37.416Z,933.04
2023-02-26T04:49:37.438Z,933.04
2023-02-26T04:50:37.442Z,933.01
2023-02-26T04:51:37.487Z,933.00
2023-02-26T04:52:37.576Z,932.99
2023-02-26T04:53:37.503Z,932.96
2023-02-26T04:54:37.525Z,932.96
2023-02-26T04:55:37.535Z,932.90
2023-02-26T04:56:37.549Z,932.89
2023-02-26T04:57:37.567Z,932.87
2023-02-26T04:58:37.580Z,932.86
2023-02-26T04:59:37.594Z,932.82
2023-02-26T05:00:37.610Z,932.85
2023-02-26T05:01:37.665Z,932.83
2023-02-26T05:02:37.644Z,932.79
2023-02-26T05:03:37.668Z,932.83
2023-02-26T05:04:37.846Z,932.78
2023-02-26T05:05:37.705Z,932.73
2023-02-26T05:06:37.712Z,932.75
2023-02-26T05:07:37.775Z,932.71
2023-02-26T05:08:37.764Z,932.70
2023-02-26T05:09:37.762Z,932.73
2023-02-26T05:10:37.794Z,932.70
2023-02-26T05:11:37.804Z,932.71
2023-02-26T05:12:37.816Z,932.68
2023-02-26T05:13:37.833Z,932.65
2023-02-26T05:14:37.846Z,932.67
2023-02-26T05:15:37.885Z,932.64
2023-02-26T05:16:37.888Z,932.69
2023-02-26T05:17:37.904Z,932.68
2023-02-26T05:18:37.911Z,932.69
2023-02-26T05:19:37.941Z,932.69
2023-02-26T05:20:37.947Z,932.69
2023-02-26T05:21:37.974Z,932.73
2023-02-26T05:22:37.982Z,932.73
2023-02-26T05:23:38.022Z,932.71
2023-02-26T05:24:38.013Z,932.70
2023-02-26T05:25:38.030Z,932.70
2023-02-26T05:26:39.063Z,932.73
2023-02-26T05:27:38.070Z,932.75
2023-02-26T05:28:38.096Z,932.76
2023-02-26T05:29:38.105Z,932.76
2023-02-26T05:30:38.144Z,932.75
2023-02-26T05:31:38.192Z,932.79
2023-02-26T05:32:38.158Z,932.77
2023-02-26T05:33:38.166Z,932.77
2023-02-26T05:34:38.180Z,932.77
2023-02-26T05:35:38.196Z,932.75
2023-02-26T05:36:38.213Z,932.76
2023-02-26T05:37:38.243Z,932.72
2023-02-26T05:38:38.280Z,932.73
2023-02-26T05:39:38.288Z,932.71
2023-02-26T05:40:38.289Z,932.66
2023-02-26T05:41:38.298Z,932.65
2023-02-26T05:42:38.321Z,932.61
2023-02-26T05:43:38.329Z,932.60
2023-02-26T05:44:38.358Z,932.55
2023-02-26T05:45:38.369Z,932.56
2023-02-26T05:46:38.479Z,932.56
2023-02-26T05:47:38.394Z,932.57
2023-02-26T05:48:38.414Z,932.55
2023-02-26T05:49:38.438Z,932.54
2023-02-26T05:50:38.452Z,932.53
2023-02-26T05:51:38.463Z,932.54
2023-02-26T05:52:38.485Z,932.53
2023-02-26T05:53:38.506Z,932.50
2023-02-26T05:54:38.509Z,932.52
2023-02-26T05:55:38.551Z,932.53
2023-02-26T05:56:38.565Z,932.52
2023-02-26T05:57:38.564Z,932.55
2023-02-26T05:58:38.590Z,932.57
2023-02-26T05:59:38.598Z,932.56
2023-02-26T06:00:38.614Z,932.59
2023-02-26T06:01:38.702Z,932.59
2023-02-26T06:02:38.678Z,932.59
2023-02-26T06:03:38.656Z,932.55
2023-02-26T06:04:38.693Z,932.55
2023-02-26T06:05:38.712Z,932.55
2023-02-26T06:06:38.715Z,932.50
2023-02-26T06:07:38.738Z,932.52
2023-02-26T06:08:38.749Z,932.49
2023-02-26T06:09:38.763Z,932.49
2023-02-26T06:10:38.797Z,932.51
2023-02-26T06:11:38.807Z,932.45
2023-02-26T06:12:38.804Z,932.47
2023-02-26T06:13:38.821Z,932.49
2023-02-26T06:14:38.857Z,932.50
2023-02-26T06:15:38.854Z,932.51
2023-02-26T06:16:38.940Z,932.54
2023-02-26T06:17:40.677Z,932.53
2023-02-26T06:18:38.904Z,932.54
2023-02-26T06:19:38.932Z,932.60
2023-02-26T06:20:38.944Z,932.56
2023-02-26T06:21:38.955Z,932.61
2023-02-26T06:22:38.979Z,932.61
2023-02-26T06:23:38.995Z,932.60
2023-02-26T06:24:39.003Z,932.62
2023-02-26T06:25:39.021Z,932.61
2023-02-26T06:26:39.043Z,932.60
2023-02-26T06:27:39.092Z,932.55
2023-02-26T06:28:39.077Z,932.58
2023-02-26T06:29:39.099Z,932.56
2023-02-26T06:30:39.149Z,932.56
2023-02-26T06:31:39.140Z,932.58
2023-02-26T06:32:39.207Z,932.56
2023-02-26T06:33:39.162Z,932.62
2023-02-26T06:34:39.182Z,932.56
2023-02-26T06:35:39.196Z,932.56
2023-02-26T06:36:39.216Z,932.54
2023-02-26T06:37:39.231Z,932.51
2023-02-26T06:38:39.246Z,932.51
2023-02-26T06:39:39.262Z,932.47
2023-02-26T06:40:39.274Z,932.52
2023-02-26T06:41:39.297Z,932.51
2023-02-26T06:42:39.355Z,932.49
2023-02-26T06:43:39.342Z,932.50
2023-02-26T06:44:39.348Z,932.51
2023-02-26T06:45:39.366Z,932.49
2023-02-26T06:46:39.372Z,932.46
2023-02-26T06:47:39.399Z,932.46
2023-02-26T06:48:39.414Z,932.46
2023-02-26T06:49:39.422Z,932.46
2023-02-26T06:50:39.438Z,932.47
2023-02-26T06:51:39.462Z,932.47
2023-02-26T06:52:39.492Z,932.48
2023-02-26T06:53:39.492Z,932.47
2023-02-26T06:54:39.505Z,932.43
2023-02-26T06:55:39.523Z,932.41
2023-02-26T06:56:39.541Z,932.42
2023-02-26T06:57:39.582Z,932.46
2023-02-26T06:58:39.595Z,932.43
2023-02-26T06:59:39.613Z,932.44
2023-02-26T07:00:39.633Z,932.40
2023-02-26T07:01:39.670Z,932.42
2023-02-26T07:02:39.784Z,932.42
2023-02-26T07:03:39.657Z,932.44
2023-02-26T07:04:39.678Z,932.45
2023-02-26T07:05:39.693Z,932.48
2023-02-26T07:06:40.256Z,932.45
2023-02-26T07:07:39.738Z,932.49
2023-02-26T07:08:39.736Z,932.50
2023-02-26T07:09:39.761Z,932.48
2023-02-26T07:10:39.767Z,932.49
2023-02-26T07:11:39.789Z,932.49
2023-02-26T07:12:39.907Z,932.51
2023-02-26T07:13:39.827Z,932.52
2023-02-26T07:14:39.833Z,932.46
2023-02-26T07:15:39.876Z,932.47
2023-02-26T07:16:39.945Z,932.49
2023-02-26T07:17:39.884Z,932.47
2023-02-26T07:18:39.911Z,932.52
2023-02-26T07:19:39.920Z,932.55
2023-02-26T07:20:39.938Z,932.52
2023-02-26T07:21:39.948Z,932.50
2023-02-26T07:22:39.980Z,932.47
2023-02-26T07:23:39.981Z,932.45
2023-02-26T07:24:39.996Z,932.47
2023-02-26T07:25:40.021Z,932.44
2023-02-26T07:26:40.039Z,932.46
2023-02-26T07:27:42.172Z,932.44
2023-02-26T07:28:40.070Z,932.48
2023-02-26T07:29:40.079Z,932.45
2023-02-26T07:30:40.242Z,932.44
2023-02-26T07:31:40.281Z,932.43
2023-02-26T07:32:40.128Z,932.41
2023-02-26T07:33:40.145Z,932.41
2023-02-26T07:34:40.164Z,932.42
2023-02-26T07:35:40.183Z,932.40
2023-02-26T07:36:40.201Z,932.41
2023-02-26T07:37:40.228Z,932.41
2023-02-26T07:38:40.236Z,932.42
2023-02-26T07:39:40.251Z,932.46
2023-02-26T07:40:40.259Z,932.45
2023-02-26T07:41:40.280Z,932.44
2023-02-26T07:42:40.295Z,932.46
2023-02-26T07:43:40.304Z,932.47
2023-02-26T07:44:40.328Z,932.49
2023-02-26T07:45:40.341Z,932.50
2023-02-26T07:46:40.360Z,932.58
2023-02-26T07:47:40.397Z,932.57
2023-02-26T07:48:40.386Z,932.61
2023-02-26T07:49:40.406Z,932.64
2023-02-26T07:50:40.425Z,932.63
2023-02-26T07:51:40.434Z,932.64
2023-02-26T07:52:40.458Z,932.65
2023-02-26T07:53:40.483Z,932.65
2023-02-26T07:54:40.482Z,932.68
2023-02-26T07:55:40.506Z,932.68
2023-02-26T07:56:40.526Z,932.69
2023-02-26T07:57:40.540Z,932.68
2023-02-26T07:58:40.559Z,932.70
2023-02-26T07:59:40.578Z,932.71
2023-02-26T08:00:40.581Z,932.73
2023-02-26T08:01:40.674Z,932.74
2023-02-26T08:02:40.621Z,932.73
2023-02-26T08:03:40.672Z,932.75
2023-02-26T08:04:40.658Z,932.76
2023-02-26T08:05:40.681Z,932.73
2023-02-26T08:06:40.683Z,932.78
2023-02-26T08:07:40.695Z,932.78
2023-02-26T08:08:40.719Z,932.75
2023-02-26T08:09:40.727Z,932.80
2023-02-26T08:10:42.113Z,932.78
2023-02-26T08:11:40.758Z,932.80
2023-02-26T08:12:40.785Z,932.81
2023-02-26T08:13:40.810Z,932.83
2023-02-26T08:14:40.810Z,932.83
2023-02-26T08:15:40.838Z,932.84
2023-02-26T08:16:40.862Z,932.88
2023-02-26T08:17:40.865Z,932.91
2023-02-26T08:18:40.883Z,932.89
2023-02-26T08:19:40.910Z,932.91
2023-02-26T08:20:40.925Z,932.91
2023-02-26T08:21:40.928Z,932.96
2023-02-26T08:22:40.939Z,932.95
2023-02-26T08:23:40.965Z,932.95
2023-02-26T08:24:40.992Z,932.96
2023-02-26T08:25:40.995Z,932.97
2023-02-26T08:26:41.004Z,933.00
2023-02-26T08:27:41.033Z,932.98
2023-02-26T08:28:41.044Z,932.99
2023-02-26T08:29:41.056Z,933.01
2023-02-26T08:30:41.132Z,933.02
2023-02-26T08:31:41.285Z,933.02
2023-02-26T08:32:41.126Z,933.07
2023-02-26T08:33:41.129Z,933.03
2023-02-26T08:34:41.140Z,933.13
2023-02-26T08:35:41.189Z,933.17
2023-02-26T08:36:41.168Z,933.13
2023-02-26T08:37:41.190Z,933.19
2023-02-26T08:38:41.207Z,933.16
2023-02-26T08:39:41.217Z,933.21
2023-02-26T08:40:41.234Z,933.26
2023-02-26T08:41:41.248Z,933.30
2023-02-26T08:42:41.274Z,933.27
2023-02-26T08:43:41.281Z,933.28
2023-02-26T08:44:41.299Z,933.27
2023-02-26T08:45:41.314Z,933.36
2023-02-26T08:46:41.349Z,933.33
2023-02-26T08:47:53.911Z,933.34
2023-02-26T08:48:41.371Z,933.37
2023-02-26T08:49:41.396Z,933.36
2023-02-26T08:50:41.405Z,933.35
2023-02-26T08:51:41.452Z,933.41
2023-02-26T08:52:41.428Z,933.44
2023-02-26T08:53:41.454Z,933.45
2023-02-26T08:54:41.469Z,933.43
2023-02-26T08:55:41.485Z,933.45
2023-02-26T08:56:41.502Z,933.45
2023-02-26T08:57:41.518Z,933.46
2023-02-26T08:58:41.534Z,933.47
2023-02-26T08:59:41.553Z,933.47
2023-02-26T09:00:41.561Z,933.49
2023-02-26T09:01:41.659Z,933.50
2023-02-26T09:02:41.622Z,933.49
2023-02-26T09:03:41.619Z,933.48
2023-02-26T09:04:41.640Z,933.49
2023-02-26T09:05:41.642Z,933.49
2023-02-26T09:06:41.657Z,933.55
2023-02-26T09:07:41.694Z,933.52
2023-02-26T09:08:41.691Z,933.53
2023-02-26T09:09:41.728Z,933.56
2023-02-26T09:10:41.730Z,933.55
2023-02-26T09:11:41.746Z,933.56
2023-02-26T09:12:41.757Z,933.56
2023-02-26T09:13:41.772Z,933.58
2023-02-26T09:14:41.795Z,933.59
2023-02-26T09:15:41.818Z,933.62
2023-02-26T09:16:41.852Z,933.64
2023-02-26T09:17:41.846Z,933.66
2023-02-26T09:18:41.852Z,933.67
2023-02-26T09:19:41.877Z,933.72
2023-02-26T09:20:41.893Z,933.70
2023-02-26T09:21:41.905Z,933.73
2023-02-26T09:22:41.917Z,933.76
2023-02-26T09:23:41.954Z,933.79
2023-02-26T09:24:41.997Z,933.79
2023-02-26T09:25:41.973Z,933.82
2023-02-26T09:26:42.006Z,933.82
2023-02-26T09:27:42.005Z,933.84
2023-02-26T09:28:42.204Z,933.86
2023-02-26T09:29:42.042Z,933.89
2023-02-26T09:30:42.048Z,933.92
2023-02-26T09:31:42.370Z,933.92
2023-02-26T09:32:42.277Z,933.94
2023-02-26T09:33:42.098Z,933.95
2023-02-26T09:34:42.121Z,933.96
2023-02-26T09:35:42.130Z,933.97
2023-02-26T09:36:42.152Z,933.96
2023-02-26T09:37:42.171Z,933.98
2023-02-26T09:38:42.178Z,934.01
2023-02-26T09:39:42.225Z,934.05
2023-02-26T09:40:42.234Z,934.05
2023-02-26T09:41:42.238Z,934.08
2023-02-26T09:42:42.244Z,934.06
2023-02-26T09:43:42.258Z,934.08
2023-02-26T09:44:42.279Z,934.11
2023-02-26T09:45:44.473Z,934.10
2023-02-26T09:46:42.308Z,934.12
2023-02-26T09:47:42.336Z,934.14
2023-02-26T09:48:42.351Z,934.21
2023-02-26T09:49:42.362Z,934.18
2023-02-26T09:50:42.380Z,934.24
2023-02-26T09:51:42.396Z,934.26
2023-02-26T09:52:42.434Z,934.30
2023-02-26T09:53:42.421Z,934.31
2023-02-26T09:54:42.445Z,934.35
2023-02-26T09:55:42.510Z,934.37
2023-02-26T09:56:42.482Z,934.34
2023-02-26T09:57:42.494Z,934.36
2023-02-26T09:58:42.522Z,934.37
2023-02-26T09:59:42.522Z,934.39
2023-02-26T10:00:42.539Z,934.36
2023-02-26T10:01:42.578Z,934.36
2023-02-26T10:02:42.569Z,934.36
2023-02-26T10:03:42.617Z,934.33
2023-02-26T10:04:42.603Z,934.36
2023-02-26T10:05:42.627Z,934.38
2023-02-26T10:06:42.636Z,934.38
2023-02-26T10:07:42.660Z,934.43
2023-02-26T10:08:42.677Z,934.45
2023-02-26T10:09:42.689Z,934.51
2023-02-26T10:10:42.708Z,934.54
2023-02-26T10:11:42.744Z,934.53
2023-02-26T10:12:42.741Z,934.62
2023-02-26T10:13:56.463Z,934.64
2023-02-26T10:14:42.789Z,934.71
2023-02-26T10:15:42.790Z,934.73
2023-02-26T10:16:42.862Z,934.76
2023-02-26T10:17:42.815Z,934.74
2023-02-26T10:18:42.831Z,934.75
2023-02-26T10:19:42.848Z,934.76
2023-02-26T10:20:42.902Z,934.72
2023-02-26T10:21:42.899Z,934.76
2023-02-26T10:22:42.896Z,934.79
2023-02-26T10:23:43.967Z,934.78
2023-02-26T10:24:42.941Z,934.76
2023-02-26T10:25:42.948Z,934.71
2023-02-26T10:26:42.960Z,934.70
2023-02-26T10:27:42.994Z,934.69
2023-02-26T10:28:42.991Z,934.66
2023-02-26T10:29:43.016Z,934.69
2023-02-26T10:30:43.045Z,934.67
2023-02-26T10:31:43.163Z,934.65
2023-02-26T10:32:43.316Z,934.63
2023-02-26T10:33:43.077Z,934.65
2023-02-26T10:34:43.086Z,934.69
2023-02-26T10:35:43.108Z,934.67
2023-02-26T10:36:43.117Z,934.69
2023-02-26T10:37:43.136Z,934.68
2023-02-26T10:38:43.160Z,934.73
2023-02-26T10:39:43.226Z,934.68
2023-02-26T10:40:43.182Z,934.74
2023-02-26T10:41:43.204Z,934.70
2023-02-26T10:42:43.227Z,934.71
2023-02-26T10:43:43.251Z,934.75
2023-02-26T10:44:43.244Z,934.76
2023-02-26T10:45:43.290Z,934.80
2023-02-26T10:46:43.288Z,934.80
2023-02-26T10:47:44.580Z,934.83
2023-02-26T10:48:43.317Z,934.81
2023-02-26T10:49:43.332Z,934.75
2023-02-26T10:50:43.341Z,934.77
2023-02-26T10:51:43.371Z,934.80
2023-02-26T10:52:43.386Z,934.78
2023-02-26T10:53:43.389Z,934.80
2023-02-26T10:54:43.412Z,934.79
2023-02-26T10:55:43.421Z,934.80
2023-02-26T10:56:43.436Z,934.84
2023-02-26T10:57:43.460Z,934.84
2023-02-26T10:58:43.470Z,934.85
2023-02-26T10:59:43.507Z,934.86
2023-02-26T11:00:43.506Z,934.85
2023-02-26T11:01:43.550Z,934.85
2023-02-26T11:02:43.607Z,934.88
2023-02-26T11:03:43.559Z,934.91
2023-02-26T11:04:43.578Z,934.88
2023-02-26T11:05:43.595Z,934.84
2023-02-26T11:06:43.602Z,934.86
2023-02-26T11:07:43.637Z,934.85
2023-02-26T11:08:43.646Z,934.86
2023-02-26T11:09:43.663Z,934.86
2023-02-26T11:10:43.673Z,934.84
2023-02-26T11:11:43.684Z,934.87
2023-02-26T11:12:43.709Z,934.89
2023-02-26T11:13:43.721Z,934.87
2023-02-26T11:14:43.745Z,934.90
2023-02-26T11:15:43.798Z,934.94
2023-02-26T11:16:43.770Z,934.95
2023-02-26T11:17:43.784Z,934.94
2023-02-26T11:18:43.813Z,934.98
2023-02-26T11:19:43.816Z,934.98
2023-02-26T11:20:43.836Z,934.99
2023-02-26T11:21:43.857Z,934.97
2023-02-26T11:22:43.866Z,934.99
2023-02-26T11:23:43.888Z,935.00
2023-02-26T11:24:43.899Z,935.02
2023-02-26T11:25:43.915Z,935.04
2023-02-26T11:26:43.937Z,935.03
2023-02-26T11:27:43.947Z,935.03
2023-02-26T11:28:43.984Z,935.06
2023-02-26T11:29:43.992Z,935.02
2023-02-26T11:30:44.073Z,935.04
2023-02-26T11:31:44.156Z,935.04
2023-02-26T11:32:44.071Z,935.01
2023-02-26T11:33:44.053Z,935.09
2023-02-26T11:34:44.061Z,935.06
2023-02-26T11:35:44.085Z,935.11
2023-02-26T11:36:44.100Z,935.07
2023-02-26T11:37:44.109Z,935.10
2023-02-26T11:38:44.134Z,935.15
2023-02-26T11:39:44.146Z,935.11
2023-02-26T11:40:44.164Z,935.17
2023-02-26T11:41:44.181Z,935.13
2023-02-26T11:42:44.189Z,935.17
2023-02-26T11:43:45.135Z,935.22
2023-02-26T11:44:44.234Z,935.20
2023-02-26T11:45:44.237Z,935.19
2023-02-26T11:46:44.254Z,935.19
2023-02-26T11:47:44.288Z,935.13
2023-02-26T11:48:44.294Z,935.16
2023-02-26T11:49:44.302Z,935.10
2023-02-26T11:50:44.319Z,935.12
2023-02-26T11:51:44.341Z,935.12
2023-02-26T11:52:44.356Z,935.10
2023-02-26T11:53:44.372Z,935.08
2023-02-26T11:54:44.391Z,935.07
2023-02-26T11:55:44.410Z,935.07
2023-02-26T11:56:44.414Z,935.12
2023-02-26T11:57:44.433Z,935.09
2023-02-26T11:58:44.452Z,935.14
2023-02-26T11:59:44.469Z,935.14
2023-02-26T12:00:44.484Z,935.14
2023-02-26T12:01:44.494Z,935.14
2023-02-26T12:02:44.565Z,935.16
2023-02-26T12:03:44.668Z,935.14
2023-02-26T12:04:44.555Z,935.15
2023-02-26T12:05:44.559Z,935.17
2023-02-26T12:06:44.579Z,935.15
2023-02-26T12:07:44.596Z,935.12
2023-02-26T12:08:44.613Z,935.18
2023-02-26T12:09:44.621Z,935.22
2023-02-26T12:10:44.644Z,935.16
2023-02-26T12:11:44.661Z,935.17
2023-02-26T12:12:44.672Z,935.14
2023-02-26T12:13:44.695Z,935.21
2023-02-26T12:14:44.702Z,935.17
2023-02-26T12:15:44.764Z,935.17
2023-02-26T12:16:44.733Z,935.14
2023-02-26T12:17:45.367Z,935.14
2023-02-26T12:18:44.810Z,935.14
2023-02-26T12:19:44.813Z,935.20
2023-02-26T12:20:44.816Z,935.17
2023-02-26T12:21:44.841Z,935.22
2023-02-26T12:22:44.838Z,935.21
2023-02-26T12:23:44.856Z,935.17
2023-02-26T12:24:47.346Z,935.18
2023-02-26T12:25:44.880Z,935.22
2023-02-26T12:26:44.896Z,935.23
2023-02-26T12:27:44.914Z,935.22
2023-02-26T12:28:44.933Z,935.19